createdAt,value
2019-03-08T08:47:20.383Z,21.24054
2019-03-08T08:47:32.502Z,21.139832
2019-03-08T08:47:45.066Z,21.059265
2019-03-08T08:47:57.175Z,21.029053
2019-03-08T08:48:09.381Z,21.129761
2019-03-08T08:48:38.834Z,21.49231
2019-03-08T08:48:50.921Z,21.532593
2019-03-08T08:49:02.840Z,21.522522
2019-03-08T08:49:14.935Z,21.50238
2019-03-08T08:49:26.922Z,21.441956
2019-03-08T08:49:38.952Z,21.37146
2019-03-08T08:49:54.721Z,21.311035
2019-03-08T08:50:04.193Z,21.25061
2019-03-08T08:50:16.215Z,21.190186
2019-03-08T08:50:28.244Z,21.11969
2019-03-08T08:50:40.254Z,21.059265
2019-03-08T08:50:52.224Z,21.008911
2019-03-08T08:51:04.239Z,20.978699
2019-03-08T08:51:16.304Z,20.968628
2019-03-08T08:51:28.437Z,20.938416
2019-03-08T08:51:40.407Z,20.888062
2019-03-08T08:51:52.396Z,20.86792
2019-03-08T08:52:04.338Z,20.817566
2019-03-08T08:52:16.526Z,20.797424
2019-03-08T08:52:28.516Z,20.787354
2019-03-08T08:52:40.545Z,20.797424
2019-03-08T08:52:52.574Z,20.787354
2019-03-08T08:53:04.600Z,20.787354
2019-03-08T08:53:16.542Z,20.767212
2019-03-08T08:53:28.965Z,20.757141
2019-03-08T08:53:41.447Z,20.737
2019-03-08T08:53:53.442Z,20.716858
2019-03-08T08:54:05.622Z,20.716858
2019-03-08T08:54:17.637Z,20.716858
2019-03-08T08:54:29.825Z,20.696716
2019-03-08T08:54:41.857Z,20.686646
2019-03-08T08:54:54.539Z,20.716858
2019-03-08T08:55:07.065Z,20.696716
2019-03-08T08:55:19.097Z,20.696716
2019-03-08T08:55:31.109Z,20.696716
2019-03-08T08:55:44.091Z,20.696716
2019-03-08T08:55:56.069Z,20.696716
2019-03-08T08:56:08.187Z,20.696716
2019-03-08T08:56:20.171Z,20.696716
2019-03-08T08:56:32.214Z,20.686646
2019-03-08T08:56:45.198Z,20.686646
2019-03-08T08:56:57.128Z,20.656433
2019-03-08T08:57:09.204Z,20.656433
2019-03-08T08:57:21.327Z,20.656433
2019-03-08T08:57:33.295Z,20.636292
2019-03-08T08:57:45.270Z,20.636292
2019-03-08T08:57:57.354Z,20.636292
2019-03-08T08:58:09.418Z,20.636292
2019-03-08T08:58:21.471Z,20.61615
2019-03-08T08:58:33.534Z,20.656433
2019-03-08T08:58:45.550Z,20.666504
2019-03-08T08:58:57.578Z,20.666504
2019-03-08T08:59:09.914Z,20.716858
2019-03-08T08:59:21.964Z,20.716858
2019-03-08T08:59:34.170Z,20.716858
2019-03-08T08:59:46.132Z,20.716858
2019-03-08T08:59:58.132Z,20.737
2019-03-08T09:00:10.442Z,20.737
2019-03-08T09:00:22.541Z,20.757141
2019-03-08T09:00:34.589Z,20.767212
2019-03-08T09:00:46.543Z,20.787354
2019-03-08T09:00:58.501Z,20.797424
2019-03-08T09:01:10.533Z,20.787354
2019-03-08T09:01:22.766Z,20.787354
2019-03-08T09:01:34.915Z,20.767212
2019-03-08T09:01:46.923Z,20.767212
2019-03-08T09:01:58.987Z,20.767212
2019-03-08T09:02:10.939Z,20.737
2019-03-08T09:02:23.147Z,20.737
2019-03-08T09:02:34.218Z,20.726929
2019-03-08T09:02:46.246Z,20.716858
2019-03-08T09:02:58.221Z,20.716858
2019-03-08T09:03:10.290Z,20.696716
2019-03-08T09:03:22.297Z,20.686646
2019-03-08T09:03:34.545Z,20.686646
2019-03-08T09:03:46.582Z,20.656433
2019-03-08T09:03:58.567Z,20.636292
2019-03-08T09:04:10.582Z,20.636292
2019-03-08T09:04:22.815Z,20.61615
2019-03-08T09:04:34.909Z,20.606079
2019-03-08T09:04:46.887Z,20.585938
2019-03-08T09:04:58.941Z,20.585938
2019-03-08T09:05:10.912Z,20.575867
2019-03-08T09:05:22.921Z,20.585938
2019-03-08T09:05:34.955Z,20.575867
2019-03-08T09:05:57.960Z,20.585938
2019-03-08T09:06:20.977Z,20.585938
2019-03-08T09:06:41.274Z,20.606079
2019-03-08T09:06:53.253Z,20.585938
2019-03-08T09:07:05.461Z,20.606079
2019-03-08T09:07:17.430Z,20.606079
2019-03-08T09:07:29.415Z,20.606079
2019-03-08T09:07:41.652Z,20.61615
2019-03-08T09:07:53.869Z,20.61615
2019-03-08T09:08:05.892Z,20.656433
2019-03-08T09:08:18.385Z,20.666504
2019-03-08T09:08:30.435Z,20.666504
2019-03-08T09:08:42.441Z,20.686646
2019-03-08T09:08:54.482Z,20.686646
2019-03-08T09:09:06.842Z,20.716858
2019-03-08T09:09:18.854Z,20.737
2019-03-08T09:09:30.897Z,20.726929
2019-03-08T09:09:42.941Z,20.767212
2019-03-08T09:09:55.027Z,20.797424
2019-03-08T09:10:07.165Z,20.797424
